Time;durP1;ratioP1;P1;durP2;ratioP2;P2;SDS_P1;SDS_P2;PMS_P1;PMS_P2;Temp;Humidity;BMP_temperature;BMP_pressure;BME280_temperature;BME280_humidity;BME280_pressure;Samples;Min_cycle;Max_cycle;Signal;HPM_P1;HPM_P2
2020/12/23 00:00:42;;;;;;;7.23;5.20;;;13.30;99.90;;;;;;5053612;28;20181;-54
2020/12/23 00:03:07;;;;;;;6.30;5.67;;;13.30;99.90;;;;;;5053738;28;20275;-56
2020/12/23 00:05:33;;;;;;;5.77;5.17;;;13.20;99.90;;;;;;5053610;28;20287;-56
2020/12/23 00:07:58;;;;;;;5.93;5.33;;;13.10;99.90;;;;;;5069046;28;20614;-59
2020/12/23 00:10:24;;;;;;;5.90;5.30;;;13.00;99.90;;;;;;5054070;28;20180;-59
2020/12/23 00:12:50;;;;;;;6.10;5.40;;;13.00;99.90;;;;;;5053433;28;20182;-59
2020/12/23 00:15:15;;;;;;;8.23;5.20;;;13.10;99.90;;;;;;5052644;28;20184;-56
2020/12/23 00:17:41;;;;;;;5.60;5.10;;;13.10;99.90;;;;;;5053411;28;20180;-56
2020/12/23 00:20:06;;;;;;;6.87;6.17;;;13.10;99.90;;;;;;5052019;28;20219;-55
2020/12/23 00:22:32;;;;;;;6.23;5.63;;;13.20;99.90;;;;;;5053553;28;20189;-58
2020/12/23 00:24:58;;;;;;;6.13;5.10;;;13.00;99.90;;;;;;5049903;28;20193;-59
2020/12/23 00:27:23;;;;;;;5.13;4.63;;;13.00;99.90;;;;;;5053095;28;20265;-55
2020/12/23 00:29:49;;;;;;;5.67;5.07;;;13.00;99.90;;;;;;5052612;28;20560;-55
2020/12/23 00:32:19;;;;;;;10.53;6.30;;;13.10;99.90;;;;;;5052914;28;20185;-60
2020/12/23 00:34:45;;;;;;;6.83;6.10;;;13.00;99.90;;;;;;5049653;28;20466;-58
2020/12/23 00:37:10;;;;;;;6.33;5.73;;;13.00;99.90;;;;;;5052192;28;20441;-56
2020/12/23 00:39:36;;;;;;;6.27;5.67;;;12.90;99.90;;;;;;5051481;28;20762;-55
2020/12/23 00:42:03;;;;;;;6.97;6.27;;;12.80;99.90;;;;;;5066612;28;20610;-57
2020/12/23 00:44:28;;;;;;;6.70;6.00;;;12.90;99.90;;;;;;5046368;28;20254;-59
2020/12/23 00:46:54;;;;;;;7.17;6.03;;;12.80;99.90;;;;;;5055390;28;20498;-59
2020/12/23 00:49:20;;;;;;;6.60;5.80;;;12.80;99.90;;;;;;5056468;28;20192;-59
2020/12/23 00:51:45;;;;;;;6.40;5.77;;;12.80;99.90;;;;;;5056701;28;20176;-56
2020/12/23 00:54:11;;;;;;;8.17;6.03;;;12.70;99.90;;;;;;5055559;28;20606;-61
2020/12/23 00:56:36;;;;;;;6.13;5.50;;;12.70;99.90;;;;;;5052599;28;20196;-60
2020/12/23 00:59:02;;;;;;;7.10;6.43;;;12.70;99.90;;;;;;5068448;28;20625;-56
2020/12/23 01:01:27;;;;;;;6.53;5.90;;;12.80;99.90;;;;;;5054348;28;20181;-55
2020/12/23 01:03:53;;;;;;;6.53;5.27;;;12.60;99.90;;;;;;5072247;28;20176;-56
2020/12/23 01:06:19;;;;;;;6.67;6.07;;;12.70;99.90;;;;;;5072302;28;20181;-56
2020/12/23 01:08:44;;;;;;;7.80;6.63;;;12.80;99.90;;;;;;5056461;28;20556;-56
2020/12/23 01:11:11;;;;;;;6.73;6.03;;;12.80;99.90;;;;;;5055228;28;20617;-60
2020/12/23 01:13:38;;;;;;;7.43;6.70;;;12.90;99.90;;;;;;5054732;28;20184;-60
2020/12/23 01:16:04;;;;;;;8.20;7.40;;;12.80;99.90;;;;;;5055141;28;20458;-55
2020/12/23 01:18:30;;;;;;;7.43;6.23;;;12.80;99.90;;;;;;5056385;28;20475;-59
2020/12/23 01:20:55;;;;;;;9.07;7.00;;;12.80;99.90;;;;;;5056297;28;20419;-55
2020/12/23 01:23:21;;;;;;;11.10;7.10;;;12.80;99.90;;;;;;5056216;28;20180;-55
2020/12/23 01:25:54;;;;;;;7.93;6.70;;;12.80;99.90;;;;;;5055565;28;20198;-59
2020/12/23 01:28:20;;;;;;;7.70;7.00;;;12.80;99.90;;;;;;5055849;28;20242;-56
2020/12/23 01:30:45;;;;;;;7.90;6.40;;;12.90;99.90;;;;;;5052502;28;20434;-55
2020/12/23 01:33:11;;;;;;;8.57;5.63;;;12.90;99.90;;;;;;5056073;28;20426;-56
2020/12/23 01:35:37;;;;;;;7.43;6.13;;;12.90;99.90;;;;;;5056129;28;20552;-56
2020/12/23 01:38:03;;;;;;;10.30;7.00;;;12.80;99.90;;;;;;5056032;28;20611;-60
2020/12/23 01:40:29;;;;;;;7.10;6.40;;;12.80;99.90;;;;;;5052607;28;20267;-59
2020/12/23 01:42:54;;;;;;;7.73;6.67;;;12.80;99.90;;;;;;5055261;28;20476;-55
2020/12/23 01:45:20;;;;;;;8.00;6.50;;;12.70;99.90;;;;;;5055496;28;20624;-59
2020/12/23 01:47:46;;;;;;;8.20;7.20;;;12.70;99.90;;;;;;5055362;28;20545;-59
2020/12/23 01:50:13;;;;;;;9.10;6.87;;;12.70;99.90;;;;;;5055564;28;20243;-55
2020/12/23 01:52:39;;;;;;;9.47;7.40;;;12.60;99.90;;;;;;5055412;28;20419;-55
2020/12/23 01:55:09;;;;;;;8.10;7.20;;;12.70;99.90;;;;;;5055600;28;20445;-58
2020/12/23 01:57:35;;;;;;;8.70;7.27;;;12.70;99.90;;;;;;5055621;28;20176;-55
2020/12/23 02:00:03;;;;;;;10.10;7.17;;;12.60;99.90;;;;;;5055481;28;20400;-59
2020/12/23 02:02:28;;;;;;;10.50;7.73;;;12.50;99.90;;;;;;5054954;28;20455;-56
2020/12/23 02:04:56;;;;;;;12.20;8.33;;;12.50;99.90;;;;;;5054868;28;20487;-59
2020/12/23 02:07:24;;;;;;;11.10;7.67;;;12.50;99.90;;;;;;5055357;28;20692;-57
2020/12/23 02:09:52;;;;;;;10.87;8.17;;;12.50;99.90;;;;;;5055350;28;20398;-60
2020/12/23 02:12:18;;;;;;;10.20;8.30;;;12.60;99.90;;;;;;5055577;28;20407;-60
2020/12/23 02:14:43;;;;;;;9.10;8.00;;;12.50;99.90;;;;;;5055218;28;20488;-60
2020/12/23 02:17:09;;;;;;;12.00;8.27;;;12.50;99.90;;;;;;5055292;28;20177;-60
2020/12/23 02:19:49;;;;;;;11.37;8.67;;;12.60;99.90;;;;;;5070843;28;20487;-55
2020/12/23 02:22:19;;;;;;;11.53;7.47;;;12.50;99.90;;;;;;5055476;28;20430;-59
2020/12/23 02:24:50;;;;;;;8.90;7.87;;;12.50;99.90;;;;;;5054310;28;20759;-55
2020/12/23 02:27:17;;;;;;;9.40;7.43;;;12.50;99.90;;;;;;5069463;28;22054;-59
2020/12/23 02:29:44;;;;;;;7.30;6.57;;;12.40;99.90;;;;;;5052376;28;20437;-55
2020/12/23 02:32:10;;;;;;;9.10;8.17;;;12.30;99.90;;;;;;5054637;28;20411;-59
2020/12/23 02:34:36;;;;;;;10.90;8.43;;;12.30;99.90;;;;;;5050402;28;20517;-55
2020/12/23 02:37:03;;;;;;;10.70;9.23;;;12.30;99.90;;;;;;5054410;28;20413;-55
2020/12/23 02:39:29;;;;;;;11.00;8.40;;;12.30;99.90;;;;;;5055028;28;20242;-55
2020/12/23 02:41:58;;;;;;;9.97;7.80;;;12.30;99.90;;;;;;5053369;28;20405;-59
2020/12/23 02:44:25;;;;;;;11.37;9.43;;;12.30;99.90;;;;;;5054653;28;20188;-58
2020/12/23 02:46:57;;;;;;;8.37;7.40;;;12.40;99.90;;;;;;5053677;28;20437;-55
2020/12/23 02:49:24;;;;;;;12.07;9.27;;;12.40;99.90;;;;;;5054576;28;20498;-54
2020/12/23 02:51:50;;;;;;;16.60;9.03;;;12.50;99.90;;;;;;5054522;28;20432;-58
2020/12/23 02:54:16;;;;;;;10.30;8.77;;;12.50;99.90;;;;;;5053900;28;20434;-59
2020/12/23 02:56:42;;;;;;;13.83;8.90;;;12.50;99.90;;;;;;5052715;28;20517;-59
2020/12/23 02:59:08;;;;;;;12.00;9.73;;;12.60;99.90;;;;;;5052917;28;20188;-56
2020/12/23 03:01:34;;;;;;;10.60;8.60;;;12.70;99.90;;;;;;5051655;28;20176;-56
2020/12/23 03:04:00;;;;;;;11.47;9.20;;;12.60;99.90;;;;;;5050734;28;20843;-58
2020/12/23 03:06:26;;;;;;;10.90;8.97;;;12.60;99.90;;;;;;5054430;28;20882;-56
2020/12/23 03:08:52;;;;;;;11.73;8.83;;;12.50;99.90;;;;;;5054096;28;20176;-58
2020/12/23 03:11:17;;;;;;;12.50;8.70;;;12.60;99.90;;;;;;5051577;28;21080;-54
2020/12/23 03:13:43;;;;;;;11.80;10.13;;;12.50;99.90;;;;;;5051654;28;20200;-58
2020/12/23 03:16:08;;;;;;;11.23;9.90;;;12.50;99.90;;;;;;5054244;28;20176;-58
2020/12/23 03:18:34;;;;;;;12.20;9.50;;;12.70;99.90;;;;;;5053950;28;20184;-55
2020/12/23 03:21:00;;;;;;;12.33;9.80;;;12.50;99.90;;;;;;5053635;28;20180;-59
2020/12/23 03:23:25;;;;;;;11.37;8.90;;;12.50;99.90;;;;;;5053461;28;20180;-55
2020/12/23 03:25:51;;;;;;;11.37;9.50;;;12.50;99.90;;;;;;5065747;28;20224;-59
2020/12/23 03:28:16;;;;;;;11.90;9.20;;;12.40;99.90;;;;;;5050995;28;20610;-55
2020/12/23 03:30:42;;;;;;;9.17;7.80;;;12.40;99.90;;;;;;5053637;28;20191;-55
2020/12/23 03:33:07;;;;;;;8.77;7.80;;;12.40;99.90;;;;;;5053992;28;20231;-59
2020/12/23 03:35:33;;;;;;;11.03;9.20;;;12.30;99.90;;;;;;5053610;28;20219;-59
2020/12/23 03:37:59;;;;;;;14.27;9.30;;;12.20;99.90;;;;;;5053881;28;20211;-59
2020/12/23 03:40:24;;;;;;;10.33;8.53;;;12.20;99.90;;;;;;5051790;28;20342;-59
2020/12/23 03:42:50;;;;;;;11.43;9.13;;;12.20;99.90;;;;;;5049904;28;20196;-56
2020/12/23 03:45:16;;;;;;;11.90;9.37;;;12.30;99.90;;;;;;5069605;28;20209;-60
2020/12/23 03:47:41;;;;;;;11.20;9.00;;;12.20;99.90;;;;;;5053416;28;20222;-60
2020/12/23 03:50:07;;;;;;;9.87;8.90;;;12.10;99.90;;;;;;5069482;28;20178;-60
2020/12/23 03:52:32;;;;;;;12.43;8.77;;;12.10;99.90;;;;;;5069227;28;20187;-60
2020/12/23 03:54:58;;;;;;;9.83;8.23;;;12.00;99.90;;;;;;5050828;28;20180;-56
2020/12/23 03:57:24;;;;;;;10.00;8.10;;;12.00;99.90;;;;;;5052245;28;20270;-55
2020/12/23 03:59:49;;;;;;;12.33;9.33;;;11.90;99.90;;;;;;5051727;28;20191;-55
2020/12/23 04:02:15;;;;;;;10.20;8.40;;;11.90;99.90;;;;;;5052746;28;20183;-55
2020/12/23 04:04:40;;;;;;;12.30;8.43;;;12.00;99.90;;;;;;5051558;28;20323;-59
2020/12/23 04:07:06;;;;;;;8.40;7.50;;;12.00;99.90;;;;;;5049987;28;20184;-59
2020/12/23 04:09:32;;;;;;;11.20;9.70;;;12.00;99.90;;;;;;5050855;28;20191;-58
2020/12/23 04:11:57;;;;;;;11.03;8.90;;;12.10;99.90;;;;;;5053608;28;20266;-59
2020/12/23 04:14:23;;;;;;;13.90;8.27;;;12.10;99.90;;;;;;5052614;28;20184;-55
2020/12/23 04:16:48;;;;;;;13.07;8.53;;;12.00;99.90;;;;;;5052911;28;20187;-56
2020/12/23 04:19:14;;;;;;;11.37;8.90;;;11.90;99.90;;;;;;5053646;28;20172;-60
2020/12/23 04:21:40;;;;;;;13.60;9.73;;;11.80;99.90;;;;;;5056081;28;20502;-60
2020/12/23 04:24:05;;;;;;;9.80;8.70;;;11.80;99.90;;;;;;5057051;28;20191;-59
2020/12/23 04:26:31;;;;;;;11.90;9.70;;;11.70;99.90;;;;;;5057235;28;20264;-56
2020/12/23 04:28:56;;;;;;;13.23;10.53;;;11.70;99.90;;;;;;5056124;28;20183;-59
2020/12/23 04:31:22;;;;;;;12.83;11.03;;;11.70;99.90;;;;;;5056586;28;20184;-55
2020/12/23 04:33:48;;;;;;;13.60;10.50;;;11.60;99.90;;;;;;5056760;28;20246;-59
2020/12/23 04:36:13;;;;;;;13.53;10.70;;;11.70;99.90;;;;;;5057242;28;20233;-54
2020/12/23 04:38:39;;;;;;;14.77;10.20;;;11.70;99.90;;;;;;5057073;28;20232;-59
2020/12/23 04:41:04;;;;;;;15.20;10.80;;;11.70;99.90;;;;;;5057029;28;20551;-58
2020/12/23 04:43:30;;;;;;;12.77;10.00;;;11.70;99.90;;;;;;5056913;28;20234;-55
2020/12/23 04:45:57;;;;;;;11.63;9.40;;;11.60;99.90;;;;;;5056106;28;20196;-58
2020/12/23 04:48:29;;;;;;;14.23;11.83;;;11.60;99.90;;;;;;5056823;28;20254;-55
2020/12/23 04:50:55;;;;;;;11.93;9.30;;;11.60;99.90;;;;;;5056170;28;20422;-59
2020/12/23 04:53:22;;;;;;;13.97;10.00;;;11.50;99.90;;;;;;5056741;28;20494;-56
2020/12/23 04:55:49;;;;;;;12.30;9.23;;;11.50;99.90;;;;;;5056540;28;20409;-55
2020/12/23 04:58:15;;;;;;;11.80;9.80;;;11.50;99.90;;;;;;5056642;28;20733;-59
2020/12/23 05:00:41;;;;;;;12.53;10.10;;;11.50;99.90;;;;;;5056860;28;20396;-57
2020/12/23 05:03:06;;;;;;;13.40;10.17;;;11.50;99.90;;;;;;5056600;28;20450;-55
2020/12/23 05:05:32;;;;;;;12.40;9.70;;;11.50;99.90;;;;;;5056609;28;20195;-55
2020/12/23 05:07:58;;;;;;;14.60;11.47;;;11.50;99.90;;;;;;5056467;28;20184;-57
2020/12/23 05:10:31;;;;;;;12.80;9.57;;;11.50;99.90;;;;;;5056383;28;20270;-61
2020/12/23 05:12:56;;;;;;;12.37;10.30;;;11.40;99.90;;;;;;5055134;28;20425;-60
2020/12/23 05:15:23;;;;;;;11.93;9.20;;;11.40;99.90;;;;;;5056726;28;20413;-60
2020/12/23 05:17:50;;;;;;;12.70;9.77;;;11.40;99.90;;;;;;5056352;28;20187;-60
2020/12/23 05:20:16;;;;;;;12.97;9.87;;;11.50;99.90;;;;;;5056393;28;20478;-60
2020/12/23 05:22:48;;;;;;;12.80;9.80;;;11.50;99.90;;;;;;5071747;28;20894;-56
2020/12/23 05:25:17;;;;;;;12.90;10.37;;;11.50;99.90;;;;;;5055918;28;20275;-60
2020/12/23 05:27:42;;;;;;;10.50;8.70;;;11.50;99.90;;;;;;5055681;28;20492;-60
2020/12/23 05:30:10;;;;;;;13.07;8.97;;;11.50;99.90;;;;;;5056456;28;20414;-56
2020/12/23 05:32:40;;;;;;;13.77;9.47;;;11.50;99.90;;;;;;5055000;28;20954;-56
2020/12/23 05:35:06;;;;;;;12.43;10.30;;;11.50;99.90;;;;;;5058920;28;20433;-56
2020/12/23 05:37:33;;;;;;;11.80;10.03;;;11.60;99.90;;;;;;5063277;28;20410;-56
2020/12/23 05:39:59;;;;;;;14.97;11.30;;;11.50;99.90;;;;;;5055838;28;20441;-56
2020/12/23 05:42:26;;;;;;;12.60;9.53;;;11.60;99.90;;;;;;5052440;28;20442;-56
2020/12/23 05:44:55;;;;;;;12.03;9.40;;;11.60;99.90;;;;;;5055147;28;20464;-57
2020/12/23 05:47:26;;;;;;;12.60;9.70;;;11.60;99.90;;;;;;5055336;28;20986;-59
2020/12/23 05:49:53;;;;;;;12.63;9.60;;;11.70;99.90;;;;;;5055481;28;20514;-56
2020/12/23 05:52:23;;;;;;;13.83;10.10;;;11.70;99.90;;;;;;5055853;28;20906;-59
2020/12/23 05:54:53;;;;;;;11.97;9.37;;;11.80;99.90;;;;;;5054798;28;20910;-60
2020/12/23 05:57:20;;;;;;;11.33;9.20;;;11.80;99.90;;;;;;5053571;28;20435;-60
2020/12/23 05:59:46;;;;;;;12.80;9.73;;;11.80;99.90;;;;;;5055143;28;20957;-60
2020/12/23 06:02:12;;;;;;;11.90;9.30;;;11.80;99.90;;;;;;5055227;28;20495;-59
2020/12/23 06:04:42;;;;;;;11.80;9.43;;;11.70;99.90;;;;;;5055602;28;20458;-60
2020/12/23 06:07:08;;;;;;;13.20;9.90;;;11.70;99.90;;;;;;5056041;28;20462;-60
2020/12/23 06:09:48;;;;;;;11.40;9.33;;;11.80;99.90;;;;;;5054570;28;20436;-56
2020/12/23 06:12:18;;;;;;;13.77;10.30;;;11.80;99.90;;;;;;5055520;28;20838;-60
2020/12/23 06:14:52;;;;;;;14.40;10.70;;;11.80;99.90;;;;;;5071040;28;20409;-56
2020/12/23 06:17:20;;;;;;;9.63;8.37;;;11.90;99.90;;;;;;5055164;28;20384;-60
2020/12/23 06:19:49;;;;;;;15.80;9.50;;;11.90;99.90;;;;;;5055223;28;20495;-60
2020/12/23 06:22:15;;;;;;;16.20;10.43;;;12.00;99.90;;;;;;5054857;28;20405;-56
2020/12/23 06:24:41;;;;;;;12.03;10.03;;;12.10;99.90;;;;;;5053991;28;20935;-57
2020/12/23 06:27:08;;;;;;;11.60;9.80;;;12.10;99.90;;;;;;5054804;28;20393;-61
2020/12/23 06:29:37;;;;;;;12.43;9.60;;;12.10;99.90;;;;;;5054332;28;20182;-60
2020/12/23 06:32:05;;;;;;;13.17;10.60;;;12.00;99.90;;;;;;5051817;28;20930;-56
2020/12/23 06:34:36;;;;;;;14.40;10.20;;;11.90;99.90;;;;;;5053304;28;20557;-61
2020/12/23 06:37:25;;;;;;;12.20;9.63;;;11.90;99.90;;;;;;5054778;28;20405;-57
2020/12/23 06:39:51;;;;;;;12.40;9.83;;;11.90;99.90;;;;;;5054593;28;20403;-56
2020/12/23 06:42:16;;;;;;;13.23;9.67;;;11.80;99.90;;;;;;5054375;28;20401;-60
2020/12/23 06:44:42;;;;;;;10.40;8.97;;;11.80;99.90;;;;;;5053746;28;20433;-57
2020/12/23 06:47:11;;;;;;;10.30;9.20;;;11.80;99.90;;;;;;5054252;28;20212;-60
2020/12/23 06:49:48;;;;;;;12.17;9.97;;;11.80;99.90;;;;;;5054654;28;20178;-60
2020/12/23 06:52:22;;;;;;;11.90;9.67;;;11.80;99.90;;;;;;5053383;28;20416;-57
2020/12/23 06:54:49;;;;;;;13.17;10.23;;;11.90;99.90;;;;;;5052342;28;20434;-60
2020/12/23 06:57:37;;;;;;;11.57;9.20;;;11.80;99.90;;;;;;5049510;28;20479;-60
2020/12/23 07:00:20;;;;;;;13.83;10.10;;;11.80;99.90;;;;;;5049216;28;20422;-57
2020/12/23 07:02:48;;;;;;;12.07;8.90;;;11.80;99.90;;;;;;5051298;28;20554;-60
2020/12/23 07:05:40;;;;;;;13.00;9.70;;;11.80;99.90;;;;;;5054290;28;20481;-56
2020/12/23 07:08:14;;;;;;;12.97;9.83;;;11.80;99.90;;;;;;5053692;28;20431;-60
2020/12/23 07:10:50;;;;;;;12.27;9.27;;;11.70;99.90;;;;;;5052534;28;20402;-57
2020/12/23 07:13:18;;;;;;;10.70;9.10;;;11.70;99.90;;;;;;5053793;28;20748;-56
2020/12/23 07:15:54;;;;;;;8.97;8.00;;;11.60;99.90;;;;;;5053692;28;20437;-56
2020/12/23 07:18:25;;;;;;;10.90;7.73;;;11.70;99.90;;;;;;5054088;28;20389;-60
2020/12/23 07:21:06;;;;;;;10.73;8.83;;;11.60;99.90;;;;;;5054167;28;20444;-56
2020/12/23 07:23:34;;;;;;;10.33;7.83;;;11.60;99.90;;;;;;5064403;28;20414;-56
2020/12/23 07:26:03;;;;;;;13.40;9.20;;;11.60;99.90;;;;;;5054062;28;20452;-59
2020/12/23 07:28:33;;;;;;;11.10;8.70;;;11.60;99.90;;;;;;5054181;28;20434;-59
2020/12/23 07:31:00;;;;;;;11.97;9.27;;;11.70;99.90;;;;;;5054141;28;20732;-56
2020/12/23 07:33:27;;;;;;;10.30;8.50;;;11.80;99.90;;;;;;5053891;28;20772;-56
2020/12/23 07:35:57;;;;;;;10.63;7.53;;;11.80;99.90;;;;;;5053929;28;20389;-55
2020/12/23 07:38:25;;;;;;;11.57;9.27;;;11.80;99.90;;;;;;5056926;28;20440;-56
2020/12/23 07:40:52;;;;;;;11.90;8.37;;;11.80;99.90;;;;;;5069622;28;20407;-56
2020/12/23 07:43:19;;;;;;;10.97;8.47;;;11.80;99.90;;;;;;5051249;28;20442;-60
2020/12/23 07:45:45;;;;;;;11.33;9.40;;;11.80;99.90;;;;;;5053771;28;20830;-56
2020/12/23 07:48:13;;;;;;;12.50;9.63;;;11.80;99.90;;;;;;5053682;28;20448;-61
2020/12/23 07:50:44;;;;;;;9.87;7.77;;;11.80;99.90;;;;;;5053257;28;20405;-60
2020/12/23 07:53:25;;;;;;;11.47;8.37;;;11.80;99.90;;;;;;5063477;28;20493;-56
2020/12/23 07:56:11;;;;;;;9.50;7.67;;;11.80;99.90;;;;;;5056661;28;20927;-56
2020/12/23 07:58:38;;;;;;;12.23;8.27;;;11.80;99.90;;;;;;5053216;28;20803;-57
2020/12/23 08:01:10;;;;;;;10.47;8.53;;;11.80;99.90;;;;;;5057668;28;20430;-60
2020/12/23 08:03:35;;;;;;;9.50;7.80;;;11.90;99.90;;;;;;5057883;28;20393;-60
2020/12/23 08:06:11;;;;;;;8.57;7.67;;;12.00;99.90;;;;;;5073093;28;20607;-56
2020/12/23 08:08:42;;;;;;;10.23;8.10;;;11.90;99.90;;;;;;5057472;28;20562;-62
2020/12/23 08:11:15;;;;;;;11.57;9.00;;;11.90;99.90;;;;;;5056872;28;20422;-56
2020/12/23 08:13:42;;;;;;;10.60;8.50;;;11.90;99.90;;;;;;5057900;28;20421;-60
2020/12/23 08:16:13;;;;;;;10.53;7.77;;;11.90;99.90;;;;;;5057779;28;20414;-60
2020/12/23 08:18:40;;;;;;;12.63;9.60;;;11.90;99.90;;;;;;5057536;28;20484;-60
2020/12/23 08:21:19;;;;;;;8.73;7.33;;;12.00;99.90;;;;;;5056976;28;20438;-60
2020/12/23 08:23:46;;;;;;;8.43;6.97;;;12.00;99.90;;;;;;5052772;28;20420;-59
2020/12/23 08:26:13;;;;;;;9.00;8.10;;;12.00;99.90;;;;;;5041600;28;20474;-56
2020/12/23 08:28:43;;;;;;;9.47;8.47;;;12.00;99.90;;;;;;5057230;28;20934;-60
2020/12/23 08:31:16;;;;;;;8.77;7.53;;;12.10;99.90;;;;;;5072676;28;20434;-56
2020/12/23 08:33:44;;;;;;;8.30;7.50;;;12.10;99.90;;;;;;5068414;28;20532;-56
2020/12/23 08:36:10;;;;;;;9.23;8.27;;;12.10;99.90;;;;;;5072642;28;20438;-56
2020/12/23 08:38:37;;;;;;;8.93;7.87;;;12.10;99.90;;;;;;5056935;28;20442;-58
2020/12/23 08:41:15;;;;;;;9.30;7.57;;;12.10;99.90;;;;;;5057012;28;20176;-58
2020/12/23 08:43:49;;;;;;;9.50;7.97;;;12.20;99.90;;;;;;5056434;28;20397;-58
2020/12/23 08:46:24;;;;;;;7.77;7.07;;;12.20;99.90;;;;;;5050171;28;20463;-60
2020/12/23 08:48:51;;;;;;;8.40;7.13;;;12.30;99.90;;;;;;5055962;28;20412;-60
2020/12/23 08:51:19;;;;;;;7.63;6.83;;;12.20;99.90;;;;;;5057023;28;20393;-59
2020/12/23 08:53:45;;;;;;;9.47;7.40;;;12.20;99.90;;;;;;5056359;28;20898;-59
2020/12/23 08:56:23;;;;;;;8.10;7.30;;;12.20;99.90;;;;;;5056495;28;20437;-58
2020/12/23 08:58:51;;;;;;;9.23;7.40;;;12.20;99.90;;;;;;5051565;28;20445;-56
2020/12/23 09:01:24;;;;;;;10.20;7.70;;;12.20;99.90;;;;;;5056676;28;20907;-56
2020/12/23 09:04:08;;;;;;;8.33;7.40;;;12.30;99.90;;;;;;5056326;28;20485;-56
2020/12/23 09:06:35;;;;;;;8.23;7.17;;;12.40;99.90;;;;;;5055503;28;20909;-57
2020/12/23 09:09:17;;;;;;;8.13;7.20;;;12.30;99.90;;;;;;5056257;28;20453;-57
2020/12/23 09:11:50;;;;;;;8.57;7.30;;;12.30;99.90;;;;;;5054067;28;20499;-56
2020/12/23 09:14:22;;;;;;;8.43;7.17;;;12.50;99.90;;;;;;5056133;28;20511;-56
2020/12/23 09:16:56;;;;;;;7.10;6.17;;;12.70;99.90;;;;;;5056369;28;20401;-55
2020/12/23 09:19:42;;;;;;;8.07;6.53;;;12.60;99.90;;;;;;5056764;28;20426;-59
2020/12/23 09:22:08;;;;;;;7.80;6.17;;;12.60;99.90;;;;;;5055791;28;20434;-56
2020/12/23 09:24:34;;;;;;;6.67;6.17;;;12.60;99.90;;;;;;5055465;28;20455;-55
2020/12/23 09:27:00;;;;;;;9.53;7.43;;;12.60;99.90;;;;;;5056270;28;20902;-59
2020/12/23 09:29:41;;;;;;;8.77;6.63;;;12.60;99.90;;;;;;5055420;28;20176;-60
2020/12/23 09:32:07;;;;;;;7.13;6.10;;;12.70;99.90;;;;;;5051028;28;20251;-60
2020/12/23 09:34:33;;;;;;;7.33;6.57;;;12.80;99.90;;;;;;5056047;28;20834;-56
2020/12/23 09:36:58;;;;;;;9.30;7.30;;;12.80;99.90;;;;;;5054427;28;20269;-56
2020/12/23 09:39:24;;;;;;;9.10;7.10;;;12.80;99.90;;;;;;5055129;28;20211;-55
2020/12/23 09:42:09;;;;;;;7.77;6.73;;;12.90;99.90;;;;;;5057697;28;20292;-59
2020/12/23 09:44:36;;;;;;;7.43;6.73;;;12.90;99.90;;;;;;5056751;28;20517;-59
2020/12/23 09:47:02;;;;;;;9.50;7.83;;;13.00;99.90;;;;;;5056453;28;20514;-62
2020/12/23 09:49:28;;;;;;;6.57;5.93;;;12.90;99.90;;;;;;5055154;28;20866;-57
2020/12/23 09:51:54;;;;;;;7.43;6.10;;;12.90;99.90;;;;;;5054705;28;20263;-56
2020/12/23 09:54:20;;;;;;;7.67;6.20;;;12.90;99.90;;;;;;5055427;28;20191;-59
2020/12/23 09:56:52;;;;;;;7.20;6.10;;;12.80;99.90;;;;;;5071210;28;20208;-59
2020/12/23 09:59:19;;;;;;;7.20;6.20;;;12.80;99.90;;;;;;5056011;28;20419;-56
2020/12/23 10:01:45;;;;;;;7.40;6.00;;;12.90;99.90;;;;;;5054723;28;20439;-56
2020/12/23 10:04:11;;;;;;;8.10;7.30;;;13.00;99.90;;;;;;5055372;28;20414;-58
2020/12/23 10:06:37;;;;;;;7.67;6.87;;;13.00;99.90;;;;;;5055427;28;20466;-56
2020/12/23 10:09:03;;;;;;;7.00;6.40;;;13.00;99.90;;;;;;5055465;28;20415;-58
2020/12/23 10:11:29;;;;;;;7.47;5.47;;;13.10;99.90;;;;;;5055292;28;20401;-58
2020/12/23 10:13:56;;;;;;;6.40;5.37;;;13.20;99.90;;;;;;5055024;28;20760;-58
2020/12/23 10:16:23;;;;;;;6.20;5.60;;;13.20;99.90;;;;;;5055283;28;20174;-58
2020/12/23 10:18:49;;;;;;;6.70;5.97;;;13.10;99.90;;;;;;5054138;28;20489;-55
2020/12/23 10:21:14;;;;;;;6.73;5.57;;;13.10;99.90;;;;;;5055389;28;20445;-55
2020/12/23 10:23:40;;;;;;;6.90;6.00;;;13.10;99.90;;;;;;5055242;28;20182;-58
2020/12/23 10:26:05;;;;;;;6.63;5.90;;;13.20;99.90;;;;;;5054742;28;20189;-58
2020/12/23 10:28:31;;;;;;;6.73;6.13;;;13.20;99.90;;;;;;5054652;28;20189;-55
2020/12/23 10:30:57;;;;;;;7.17;6.43;;;13.30;99.90;;;;;;5055052;28;20588;-56
2020/12/23 10:33:22;;;;;;;6.80;6.20;;;13.30;99.90;;;;;;5053656;28;20255;-59
2020/12/23 10:35:48;;;;;;;7.63;6.03;;;13.40;99.90;;;;;;5053973;28;20177;-57
2020/12/23 10:38:13;;;;;;;7.03;6.33;;;13.40;99.90;;;;;;5055171;28;20188;-56
2020/12/23 10:40:39;;;;;;;7.77;6.57;;;13.40;99.90;;;;;;5054864;28;20609;-58
2020/12/23 10:43:04;;;;;;;10.67;6.20;;;13.40;99.90;;;;;;5054146;28;20537;-56
2020/12/23 10:45:30;;;;;;;7.93;5.60;;;13.60;99.90;;;;;;5053934;28;20185;-56
2020/12/23 10:47:56;;;;;;;7.27;5.97;;;13.60;99.90;;;;;;5054249;28;20294;-55
2020/12/23 10:50:21;;;;;;;7.13;6.40;;;13.60;99.90;;;;;;5054559;28;20622;-56
2020/12/23 10:52:47;;;;;;;7.57;6.77;;;13.70;99.90;;;;;;5054351;28;20187;-59
2020/12/23 10:55:13;;;;;;;7.00;5.70;;;13.80;99.90;;;;;;5051231;28;20216;-59
2020/12/23 10:57:38;;;;;;;6.33;5.73;;;13.80;99.90;;;;;;5054242;28;20622;-59
2020/12/23 11:00:07;;;;;;;6.40;5.77;;;13.70;99.90;;;;;;5054629;28;20475;-56
2020/12/23 11:02:32;;;;;;;8.27;6.20;;;13.70;99.90;;;;;;5064020;28;20183;-57
2020/12/23 11:04:58;;;;;;;8.90;6.37;;;13.70;99.90;;;;;;5054514;28;20436;-59
2020/12/23 11:07:24;;;;;;;6.13;5.53;;;13.70;99.90;;;;;;5052822;28;20183;-59
2020/12/23 11:09:50;;;;;;;5.80;5.20;;;13.70;99.90;;;;;;5053994;28;20246;-59
2020/12/23 11:12:16;;;;;;;7.43;6.67;;;13.80;99.90;;;;;;5054160;28;20638;-59
2020/12/23 11:14:42;;;;;;;7.17;6.47;;;13.80;99.90;;;;;;5053861;28;20451;-60
2020/12/23 11:17:08;;;;;;;7.67;6.37;;;13.80;99.90;;;;;;5033451;28;20202;-56
2020/12/23 11:19:34;;;;;;;10.60;6.47;;;13.70;99.90;;;;;;5043189;28;20867;-55
2020/12/23 11:21:59;;;;;;;7.77;6.57;;;13.90;99.90;;;;;;5054165;28;20241;-55
2020/12/23 11:24:25;;;;;;;7.63;6.93;;;13.90;99.90;;;;;;5053358;28;20191;-58
2020/12/23 11:26:51;;;;;;;7.33;6.57;;;14.10;99.90;;;;;;5053175;28;20613;-56
2020/12/23 11:29:16;;;;;;;8.00;7.20;;;14.20;99.90;;;;;;5041488;28;20264;-56
2020/12/23 11:31:42;;;;;;;8.70;7.73;;;14.20;99.90;;;;;;5034131;28;20200;-55
2020/12/23 11:34:08;;;;;;;8.53;7.63;;;14.30;99.90;;;;;;5033321;28;20222;-58
2020/12/23 11:36:33;;;;;;;7.87;7.10;;;14.30;99.90;;;;;;5034233;28;20189;-59
2020/12/23 11:39:00;;;;;;;7.60;6.80;;;14.30;99.90;;;;;;5050124;28;20188;-60
2020/12/23 11:41:26;;;;;;;8.27;7.40;;;14.30;99.90;;;;;;5053881;28;20512;-55
2020/12/23 11:43:52;;;;;;;7.47;6.77;;;14.20;99.90;;;;;;5053985;28;20421;-56
2020/12/23 11:46:18;;;;;;;8.37;7.50;;;14.20;99.90;;;;;;5049287;28;20978;-57
2020/12/23 11:48:43;;;;;;;11.10;8.40;;;14.20;99.90;;;;;;5053691;28;20587;-59
2020/12/23 11:51:09;;;;;;;8.70;7.80;;;14.30;99.90;;;;;;5052457;28;20168;-59
2020/12/23 11:53:35;;;;;;;9.57;8.13;;;14.30;99.90;;;;;;5053536;28;20255;-58
2020/12/23 11:56:01;;;;;;;8.80;7.90;;;14.30;99.90;;;;;;5042188;28;20176;-56
2020/12/23 11:58:27;;;;;;;9.93;7.43;;;14.50;99.90;;;;;;5034217;28;20441;-60
2020/12/23 12:00:53;;;;;;;12.27;8.10;;;14.40;99.90;;;;;;5033875;28;20429;-61
2020/12/23 12:03:19;;;;;;;11.73;7.20;;;14.40;99.90;;;;;;5039615;28;20190;-62
2020/12/23 12:05:45;;;;;;;8.80;6.90;;;14.40;99.90;;;;;;5054071;28;20213;-56
2020/12/23 12:08:11;;;;;;;10.70;7.33;;;14.50;99.90;;;;;;5052759;28;20870;-56
2020/12/23 12:10:36;;;;;;;11.40;7.67;;;14.50;99.90;;;;;;5053940;28;20178;-60
2020/12/23 12:13:02;;;;;;;9.90;8.03;;;14.50;99.90;;;;;;5053076;28;20629;-60
2020/12/23 12:15:28;;;;;;;7.90;7.10;;;14.40;99.90;;;;;;5053501;28;20176;-57
2020/12/23 12:17:54;;;;;;;8.30;6.70;;;14.30;99.90;;;;;;5053699;28;20333;-59
2020/12/23 12:20:20;;;;;;;7.23;6.50;;;14.40;99.90;;;;;;5052694;28;20517;-56
2020/12/23 12:22:46;;;;;;;9.27;8.30;;;14.50;99.90;;;;;;5053576;28;20214;-55
2020/12/23 12:25:15;;;;;;;9.00;6.37;;;14.50;99.90;;;;;;5053040;28;20461;-61
2020/12/23 12:27:41;;;;;;;10.53;7.00;;;14.50;99.90;;;;;;5052903;28;20201;-56
2020/12/23 12:30:07;;;;;;;7.93;7.13;;;14.40;99.90;;;;;;5053510;28;21191;-55
2020/12/23 12:32:33;;;;;;;7.50;6.77;;;14.50;99.90;;;;;;5053458;28;20389;-56
2020/12/23 12:34:59;;;;;;;8.53;6.50;;;14.50;99.90;;;;;;5053147;28;20412;-58
2020/12/23 12:37:25;;;;;;;9.33;7.80;;;14.50;99.90;;;;;;5068791;28;20213;-59
2020/12/23 12:39:51;;;;;;;7.47;6.77;;;14.50;99.90;;;;;;5053320;28;20424;-58
2020/12/23 12:42:16;;;;;;;12.30;9.47;;;14.50;99.90;;;;;;5055411;28;20188;-57